サルヴァドール国際空港の過去48時間の天気

サルヴァドール国際空港 (Salvador Aeroporto )

現在時刻: 1/22 23:03 -03 (1/23 02:03 UTC) 以下の時間は現地時間です。

過去48時間のMETAR気象情報
時間 風向 風速(m/s) 視程 気温(℃) 湿度(%) 気圧(hPa) 天気現象
22 22:00 5 10km以上 28 66 1017
22 21:00 東南東 4 10km以上 28 66 1016
22 20:00 東南東 5 10km以上 28 62 1016
22 19:00 4 10km以上 28 70 1016
22 18:00 東南東 4 10km以上 28 70 1016
22 17:00 東南東 4 10km以上 29 66 1015
22 16:00 東南東 4 10km以上 29 66 1015
22 15:00 南東 4 10km以上 29 66 1015
22 14:00 東南東 4 10km以上 28 66 1016
22 13:00 7 10km以上 29 66 1016
22 12:00 東南東 6 8000m 29 58 1016 周辺でしゅう雨
22 11:00 東南東 4 10km以上 30 62 1017
22 10:00 東南東 5 10km以上 29 66 1017
22 09:00 5 10km以上 29 62 1017
22 08:00 東南東 4 10km以上 28 66 1016
22 07:00 南東 4 10km以上 27 74 1016
22 06:00 東南東 4 10km以上 27 70 1015 周辺でしゅう雨
22 05:00 2 10km以上 26 74 1014
22 04:00 東南東 3 10km以上 27 74 1014
22 03:00 東南東 4 10km以上 27 70 1014
22 02:00 東南東 5 10km以上 28 66 1013
22 01:00 東南東 5 10km以上 28 66 1014
22 00:00 東南東 5 10km以上 28 70 1014
21 23:00 4 10km以上 28 70 1015
21 22:00 4 10km以上 28 70 1016
21 21:00 5 10km以上 28 66 1015
21 20:00 4 10km以上 27 74 1015
21 19:00 東北東 4 10km以上 28 66 1014
21 18:00 5 10km以上 28 66 1014
21 17:00 6 10km以上 29 62 1014
21 16:00 6 10km以上 29 66 1013
21 15:00 6 10km以上 31 59 1014
21 14:00 6 10km以上 30 62 1014
21 13:00 6 10km以上 29 66 1014
21 12:00 6 10km以上 30 59 1015
21 11:00 東南東 6 10km以上 30 59 1015
21 10:00 東南東 5 10km以上 29 66 1015
21 09:00 不定 2 10km以上 27 79 1015 周辺でしゅう雨
21 08:00 不定 1 10km以上 26 79 1015 弱い雨
21 07:00 2 10km以上 25 89 1015
21 06:00 北西 2 10km以上 24 89 1014
21 05:00 西北西 2 9000m 24 89 1013 周辺でしゅう雨
21 04:00 不定 1 8000m 25 83 1013 弱い雨
21 03:00 静穏 0 10km以上 24 89 1012
21 02:00 不定 1 10km以上 25 83 1013
21 01:00 不定 1 10km以上 25 83 1013
21 00:00 北北東 4 10km以上 25 83 1013 周辺でしゅう雨
SBSV 230100Z 10009KT 9999 SCT020 FEW023TCU 28/21 Q1017
SBSV 230000Z 11008KT 9999 SCT020 FEW023TCU 28/21 Q1016
SBSV 222300Z 12009KT 080V230 9999 SCT020 FEW023TCU SCT070 28/20 Q1016
SBSV 222200Z 10007KT 9999 FEW020 SCT070 28/22 Q1016
SBSV 222100Z 12007KT 080V180 9999 SCT023 SCT080 28/22 Q1016
SBSV 222000Z 12007KT 090V200 9999 SCT023 BKN080 29/22 Q1015
SBSV 221900Z 12008KT 080V190 9999 SCT023 FEW025TCU BKN080 29/22 Q1015
SBSV 221800Z 13007KT 080V180 9999 SCT020 FEW023TCU BKN080 29/22 Q1015
SBSV 221700Z 12008KT 9999 SCT020 FEW023TCU BKN080 28/21 Q1016
SBSV 221600Z 10013KT 9999 SCT020 BKN060 29/22 Q1016
SBSV 221500Z 11012KT 8000 VCSH SCT020 FEW023TCU BKN060 29/20 Q1016
SBSV 221400Z 12008KT 9999 SCT020 BKN060 30/22 Q1017
SBSV 221300Z 12009KT 9999 SCT020 BKN060 29/22 Q1017
SBSV 221200Z 10009KT 9999 SCT020 BKN060 29/21 Q1017
SBSV 221100Z 11008KT 090V150 9999 SCT020 BKN060 28/21 Q1016
SBSV 221000Z 14007KT 100V170 9999 SCT020 BKN060 27/22 Q1016
SBSV 220900Z 12007KT 9999 VCSH SCT020 BKN060 27/21 Q1015
SBSV 220800Z 08004KT 9999 SCT020 26/21 Q1014
SBSV 220700Z 12005KT 9999 SCT020 27/22 Q1014
SBSV 220600Z 11008KT 9999 SCT020 27/21 Q1014
SBSV 220500Z 11010KT 9999 SCT020 28/21 Q1013
SBSV 220400Z 11009KT 9999 SCT020 28/21 Q1014
SBSV 220300Z 11009KT 9999 SCT020 28/22 Q1014
SBSV 220200Z 10008KT 9999 FEW020 SCT100 28/22 Q1015
SBSV 220100Z 09008KT 9999 FEW020 SCT100 28/22 Q1016
SBSV 220000Z 09010KT 9999 FEW020 BKN100 28/21 Q1015
SBSV 212300Z 08008KT 9999 SCT020 SCT060 27/22 Q1015
SBSV 212200Z 07008KT 9999 SCT020 SCT060 28/21 Q1014
SBSV 212100Z 09009KT 9999 SCT020 BKN070 28/21 Q1014
SBSV 212000Z 08011KT 9999 SCT020 BKN070 29/21 Q1014
SBSV 211900Z 10011KT 9999 SCT023 BKN070 29/22 Q1013
SBSV 211800Z 10011KT 9999 SCT023 SCT080 31/22 Q1014
SBSV 211700Z 09011KT 9999 SCT023 SCT070 30/22 Q1014
SBSV 211600Z 09011KT 060V120 9999 SCT020 SCT060 29/22 Q1014
SBSV 211500Z 10011KT 080V140 9999 SCT020 SCT060 BKN100 30/21 Q1015
SBSV 211400Z 11011KT 9999 FEW020 SCT060 30/21 Q1015
SBSV 211300Z 11009KT 9999 FEW020 SCT070 29/22 Q1015
SBSV 211200Z VRB03KT 9999 VCSH BKN020 FEW023TCU BKN070 27/23 Q1015
SBSV 211100Z VRB01KT 9999 -RA FEW010 BKN020 FEW023TCU BKN070 26/22 Q1015
SBSV 211000Z 36003KT 320V060 9999 SCT020 FEW023TCU SCT060 25/23 Q1015
SBSV 210900Z 31003KT 290V360 9999 SCT020 FEW023TCU SCT100 24/22 Q1014
SBSV 210800Z 29003KT 260V330 9000 VCSH SCT020 FEW023TCU SCT040 24/22 Q1013
SBSV 210700Z VRB02KT 8000 -RA SCT015 FEW018TCU BKN040 25/22 Q1013
SBSV 210600Z 00000KT 9999 SCT020 24/22 Q1012
SBSV 210500Z VRB01KT 9999 SCT020 SCT100 25/22 Q1013
SBSV 210400Z VRB02KT 9999 SCT020 FEW023TCU BKN100 25/22 Q1013
SBSV 210300Z 03008KT 9999 VCSH SCT018 FEW020TCU BKN090 25/22 Q1013